createdAt,value
2022-10-23T00:01:37.875Z,98116.53
2022-10-23T00:04:07.318Z,98109.72
2022-10-23T00:06:35.931Z,98112.66
2022-10-23T00:09:07.227Z,98109.72
2022-10-23T00:11:35.487Z,98119.66
2022-10-23T00:14:06.747Z,98122.16
2022-10-23T00:16:36.055Z,98128.00
2022-10-23T00:19:04.588Z,98122.00
2022-10-23T00:21:32.336Z,98128.63
2022-10-23T00:23:59.912Z,98138.97
2022-10-23T00:26:27.674Z,98132.69
2022-10-23T00:28:55.570Z,98135.19
2022-10-23T00:31:24.624Z,98140.16
2022-10-23T00:33:53.863Z,98133.34
2022-10-23T00:36:22.031Z,98142.94
2022-10-23T00:38:51.460Z,98147.91
2022-10-23T00:41:22.089Z,98151.22
2022-10-23T00:44:07.753Z,98150.81
2022-10-23T00:46:36.157Z,98159.13
2022-10-23T00:49:06.254Z,98161.19
2022-10-23T00:51:40.537Z,98155.81
2022-10-23T00:54:25.585Z,98166.38
2022-10-23T00:57:07.437Z,98161.19
2022-10-23T00:59:37.037Z,98165.56
2022-10-23T01:02:12.523Z,98164.09
2022-10-23T01:04:41.523Z,98169.47
2022-10-23T01:07:13.812Z,98176.09
2022-10-23T01:09:47.895Z,98177.78
2022-10-23T01:12:24.447Z,98179.84
2022-10-23T01:15:00.867Z,98183.56
2022-10-23T01:17:34.643Z,98186.25
2022-10-23T01:20:19.186Z,98196.00
2022-10-23T01:23:15.142Z,98191.47
2022-10-23T01:25:59.291Z,98198.06
2022-10-23T01:28:33.915Z,98206.78
2022-10-23T01:31:08.433Z,98209.47
2022-10-23T01:33:41.525Z,98207.63
2022-10-23T01:36:16.891Z,98219.81
2022-10-23T01:38:49.633Z,98216.06
2022-10-23T01:41:29.430Z,98223.03
2022-10-23T01:44:04.177Z,98232.38
2022-10-23T01:46:35.391Z,98237.75
2022-10-23T01:49:06.735Z,98233.66
2022-10-23T01:51:37.587Z,98230.94
2022-10-23T01:54:10.169Z,98235.31
2022-10-23T01:56:41.384Z,98235.97
2022-10-23T01:59:15.665Z,98237.00
2022-10-23T02:01:48.211Z,98243.22
2022-10-23T02:04:21.813Z,98241.09
2022-10-23T02:06:49.479Z,98241.91
2022-10-23T02:09:16.921Z,98245.66
2022-10-23T02:11:53.465Z,98250.00
2022-10-23T02:14:36.057Z,98254.56
2022-10-23T02:17:09.831Z,98265.72
2022-10-23T02:19:45.359Z,98265.53
2022-10-23T02:22:16.765Z,98270.91
2022-10-23T02:24:49.927Z,98272.34
2022-10-23T02:27:20.681Z,98268.81
2022-10-23T02:29:58.975Z,98257.47
2022-10-23T02:32:29.080Z,98270.75
2022-10-23T02:34:56.866Z,98266.56
2022-10-23T02:37:24.486Z,98267.97
2022-10-23T02:39:53.222Z,98270.91
2022-10-23T02:42:26.345Z,98281.66
2022-10-23T02:45:05.167Z,98276.28
2022-10-23T02:47:55.326Z,98278.72
2022-10-23T02:50:29.469Z,98290.34
2022-10-23T02:53:05.601Z,98279.50
2022-10-23T02:55:42.956Z,98289.06
2022-10-23T02:58:19.296Z,98290.53
2022-10-23T03:01:01.785Z,98287.75
2022-10-23T03:03:40.255Z,98305.34
2022-10-23T03:06:08.145Z,98305.81
2022-10-23T03:08:50.722Z,98312.13
2022-10-23T03:11:19.472Z,98314.19
2022-10-23T03:13:46.891Z,98311.91
2022-10-23T03:16:15.831Z,98321.31
2022-10-23T03:18:48.930Z,98312.69
2022-10-23T03:21:17.920Z,98313.16
2022-10-23T03:23:45.451Z,98324.63
2022-10-23T03:26:18.032Z,98326.53
2022-10-23T03:28:45.483Z,98338.59
2022-10-23T03:31:12.856Z,98336.53
2022-10-23T03:33:41.816Z,98346.09
2022-10-23T03:36:11.993Z,98344.66
2022-10-23T03:38:40.376Z,98340.31
2022-10-23T03:41:07.769Z,98341.16
2022-10-23T03:43:35.215Z,98349.03
2022-10-23T03:46:03.295Z,98354.03
2022-10-23T03:48:33.795Z,98358.78
2022-10-23T03:51:02.618Z,98359.22
2022-10-23T03:53:31.820Z,98354.84
2022-10-23T03:56:02.353Z,98369.81
2022-10-23T03:58:29.798Z,98365.88
2022-10-23T04:00:57.400Z,98366.53
2022-10-23T04:03:24.992Z,98367.75
2022-10-23T04:05:52.945Z,98378.34
2022-10-23T04:08:23.888Z,98387.44
2022-10-23T04:10:54.844Z,98389.31
2022-10-23T04:13:31.594Z,98395.53
2022-10-23T04:15:59.015Z,98402.97
2022-10-23T04:18:26.534Z,98407.53
2022-10-23T04:20:54.594Z,98401.31
2022-10-23T04:23:23.633Z,98407.34
2022-10-23T04:25:51.121Z,98411.91
2022-10-23T04:28:23.399Z,98414.19
2022-10-23T04:30:50.840Z,98417.09
2022-10-23T04:33:18.496Z,98420.44
2022-10-23T04:35:49.206Z,98418.13
2022-10-23T04:38:17.425Z,98426.44
2022-10-23T04:40:48.988Z,98421.69
2022-10-23T04:43:20.916Z,98433.69
2022-10-23T04:45:49.636Z,98420.22
2022-10-23T04:48:17.672Z,98427.09
2022-10-23T04:51:06.842Z,98431.25
2022-10-23T04:53:53.469Z,98426.91
2022-10-23T04:56:37.544Z,98433.31
2022-10-23T04:59:09.018Z,98434.97
2022-10-23T05:01:38.561Z,98436.84
2022-10-23T05:04:08.255Z,98432.91
2022-10-23T05:06:50.340Z,98441.00
2022-10-23T05:09:28.081Z,98447.63
2022-10-23T05:12:17.917Z,98447.63
2022-10-23T05:14:45.396Z,98448.28
2022-10-23T05:17:20.191Z,98446.00
2022-10-23T05:19:58.499Z,98441.84
2022-10-23T05:22:30.444Z,98444.53
2022-10-23T05:24:58.775Z,98438.13
2022-10-23T05:27:28.705Z,98440.41
2022-10-23T05:29:56.655Z,98444.16
2022-10-23T05:32:29.939Z,98453.72
2022-10-23T05:34:59.349Z,98452.03
2022-10-23T05:37:29.615Z,98453.50
2022-10-23T05:40:08.034Z,98453.50
2022-10-23T05:42:40.930Z,98453.50
2022-10-23T05:45:11.629Z,98455.19
2022-10-23T05:48:11.002Z,98448.31
2022-10-23T05:51:22.826Z,98451.47
2022-10-23T05:54:19.804Z,98442.34
2022-10-23T05:56:56.248Z,98449.13
2022-10-23T05:59:33.225Z,98448.09
2022-10-23T06:02:15.720Z,98460.81
2022-10-23T06:04:53.099Z,98455.34
2022-10-23T06:07:40.657Z,98452.88
2022-10-23T06:10:10.968Z,98450.56
2022-10-23T06:12:43.359Z,98448.47
2022-10-23T06:15:17.447Z,98450.72
2022-10-23T06:18:10.398Z,98441.19
2022-10-23T06:20:48.016Z,98446.78
2022-10-23T06:23:24.403Z,98447.25
2022-10-23T06:26:23.360Z,98453.91
2022-10-23T06:29:26.672Z,98456.44
2022-10-23T06:31:55.702Z,98462.88
2022-10-23T06:34:23.929Z,98447.72
2022-10-23T06:36:51.818Z,98448.16
2022-10-23T06:39:45.605Z,98449.00
2022-10-23T06:42:15.984Z,98453.34
2022-10-23T06:44:55.491Z,98450.22
2022-10-23T06:47:51.910Z,98443.41
2022-10-23T06:50:37.953Z,98452.09
2022-10-23T06:53:11.507Z,98452.09
2022-10-23T06:55:43.780Z,98466.19
2022-10-23T06:58:11.881Z,98465.78
2022-10-23T07:00:55.916Z,98453.56
2022-10-23T07:03:24.906Z,98456.03
2022-10-23T07:05:53.030Z,98456.47
2022-10-23T07:08:20.847Z,98467.88
2022-10-23T07:10:53.408Z,98466.84
2022-10-23T07:13:22.020Z,98459.16
2022-10-23T07:15:58.621Z,98454.59
2022-10-23T07:18:29.101Z,98456.63
2022-10-23T07:21:25.728Z,98450.03
2022-10-23T07:23:56.311Z,98450.88
2022-10-23T07:26:24.581Z,98455.22
2022-10-23T07:28:52.533Z,98460.81
2022-10-23T07:31:25.637Z,98461.84
2022-10-23T07:34:15.358Z,98457.47
2022-10-23T07:36:44.876Z,98459.59
2022-10-23T07:39:13.653Z,98460.81
2022-10-23T07:41:47.851Z,98455.00
2022-10-23T07:44:16.007Z,98468.72
2022-10-23T07:46:44.000Z,98466.00
2022-10-23T07:49:11.721Z,98463.75
2022-10-23T07:51:42.149Z,98472.06
2022-10-23T07:54:12.140Z,98473.88
2022-10-23T07:57:10.465Z,98477.00
2022-10-23T07:59:46.093Z,98479.69
2022-10-23T08:02:16.570Z,98472.44
2022-10-23T08:04:44.784Z,98472.81
2022-10-23T08:07:26.148Z,98466.84
2022-10-23T08:09:56.651Z,98464.97
2022-10-23T08:12:24.277Z,98456.19
2022-10-23T08:14:51.673Z,98464.69
2022-10-23T08:17:19.225Z,98475.28
2022-10-23T08:20:18.479Z,98461.41
2022-10-23T08:22:47.840Z,98465.75
2022-10-23T08:25:25.252Z,98469.66
2022-10-23T08:27:54.061Z,98463.91
2022-10-23T08:30:21.883Z,98470.34
2022-10-23T08:32:49.373Z,98473.03
2022-10-23T08:35:17.428Z,98472.44
2022-10-23T08:37:44.965Z,98467.69
2022-10-23T08:40:17.366Z,98469.34
2022-10-23T08:43:12.160Z,98470.81
2022-10-23T08:45:56.073Z,98479.53
2022-10-23T08:48:56.968Z,98470.22
2022-10-23T08:51:55.918Z,98469.78
2022-10-23T08:54:28.224Z,98477.09
2022-10-23T08:57:03.766Z,98474.78
2022-10-23T08:59:36.595Z,98477.09
2022-10-23T09:02:10.931Z,98474.78
2022-10-23T09:04:38.383Z,98469.81
2022-10-23T09:07:20.412Z,98469.22
2022-10-23T09:10:01.753Z,98470.88
2022-10-23T09:12:31.932Z,98464.03
2022-10-23T09:15:15.230Z,98470.25
2022-10-23T09:17:44.230Z,98459.66
2022-10-23T09:20:18.994Z,98462.59
2022-10-23T09:22:47.518Z,98462.22
2022-10-23T09:25:19.859Z,98457.66
2022-10-23T09:27:54.785Z,98461.81
2022-10-23T09:30:29.281Z,98456.81
2022-10-23T09:32:56.719Z,98451.41
2022-10-23T09:35:26.333Z,98448.72
2022-10-23T09:37:54.088Z,98453.13
2022-10-23T09:40:29.915Z,98459.53
2022-10-23T09:43:01.234Z,98458.22
2022-10-23T09:45:32.387Z,98450.63
2022-10-23T09:48:06.449Z,98451.53
2022-10-23T09:50:33.934Z,98443.34
2022-10-23T09:53:01.378Z,98438.47
2022-10-23T09:55:29.511Z,98448.03
2022-10-23T09:57:58.509Z,98453.22
2022-10-23T10:00:27.426Z,98449.94
2022-10-23T10:02:57.244Z,98450.34
2022-10-23T10:05:43.294Z,98454.88
2022-10-23T10:08:28.909Z,98447.41
2022-10-23T10:11:02.389Z,98450.13
2022-10-23T10:13:52.975Z,98447.03
2022-10-23T10:16:31.862Z,98454.88
2022-10-23T10:19:07.033Z,98449.50
2022-10-23T10:22:03.254Z,98444.50
2022-10-23T10:24:36.170Z,98454.88
2022-10-23T10:27:14.188Z,98443.06
2022-10-23T10:30:00.893Z,98452.38
2022-10-23T10:32:40.323Z,98448.69
2022-10-23T10:35:34.264Z,98444.34
2022-10-23T10:38:20.585Z,98453.06
2022-10-23T10:40:54.380Z,98445.78
2022-10-23T10:43:35.450Z,98455.59
2022-10-23T10:46:14.164Z,98449.13
2022-10-23T10:48:48.841Z,98456.63
2022-10-23T10:51:32.575Z,98456.56
2022-10-23T10:54:19.930Z,98458.72
2022-10-23T10:57:10.994Z,98456.63
2022-10-23T10:59:45.951Z,98463.69
2022-10-23T11:02:27.438Z,98458.47
2022-10-23T11:04:57.484Z,98448.91
2022-10-23T11:07:30.114Z,98457.84
2022-10-23T11:10:03.288Z,98460.91
2022-10-23T11:12:30.764Z,98472.56
2022-10-23T11:14:58.266Z,98475.25
2022-10-23T11:17:34.771Z,98480.88
2022-10-23T11:20:06.040Z,98471.94
2022-10-23T11:22:37.124Z,98470.66
2022-10-23T11:25:33.016Z,98476.47
2022-10-23T11:28:18.412Z,98470.06
2022-10-23T11:31:01.334Z,98485.31
2022-10-23T11:33:56.986Z,98471.84
2022-10-23T11:36:43.034Z,98474.56
2022-10-23T11:39:20.971Z,98476.84
2022-10-23T11:41:51.203Z,98471.50
2022-10-23T11:44:40.418Z,98470.88
2022-10-23T11:47:29.028Z,98473.94
2022-10-23T11:50:17.461Z,98468.97
2022-10-23T11:53:23.788Z,98472.53
2022-10-23T11:56:00.323Z,98469.41
2022-10-23T11:58:40.500Z,98471.94
2022-10-23T12:01:34.052Z,98464.84
2022-10-23T12:04:06.374Z,98472.34
2022-10-23T12:06:41.329Z,98465.94
2022-10-23T12:09:23.732Z,98459.88
2022-10-23T12:12:05.539Z,98465.94
2022-10-23T12:14:36.246Z,98458.44
2022-10-23T12:17:28.249Z,98466.09
2022-10-23T12:20:03.867Z,98469.59
2022-10-23T12:22:42.407Z,98465.69
2022-10-23T12:25:15.530Z,98468.63
2022-10-23T12:27:49.787Z,98473.19
2022-10-23T12:30:21.907Z,98477.72
2022-10-23T12:33:10.248Z,98470.66
2022-10-23T12:36:19.725Z,98474.03
2022-10-23T12:38:51.212Z,98473.38
2022-10-23T12:41:22.809Z,98470.22
2022-10-23T12:43:54.501Z,98480.66
2022-10-23T12:46:34.397Z,98478.78
2022-10-23T12:49:04.816Z,98485.19
2022-10-23T12:51:34.656Z,98488.53
2022-10-23T12:54:04.124Z,98487.72
2022-10-23T12:56:36.435Z,98487.53
2022-10-23T12:59:05.464Z,98488.16
2022-10-23T13:01:34.341Z,98485.44
2022-10-23T13:04:08.237Z,98491.63
2022-10-23T13:06:36.040Z,98491.00
2022-10-23T13:09:06.516Z,98484.56
2022-10-23T13:11:34.999Z,98487.28
2022-10-23T13:14:12.407Z,98491.28
2022-10-23T13:16:39.964Z,98485.28
2022-10-23T13:19:21.662Z,98487.53
2022-10-23T13:21:49.478Z,98481.09
2022-10-23T13:24:21.582Z,98488.78
2022-10-23T13:26:49.083Z,98485.66
2022-10-23T13:29:21.218Z,98486.69
2022-10-23T13:31:49.511Z,98484.84
2022-10-23T13:34:26.226Z,98488.38
2022-10-23T13:36:58.246Z,98481.56
2022-10-23T13:39:35.027Z,98476.53
2022-10-23T13:42:12.720Z,98486.94
2022-10-23T13:44:41.075Z,98472.59
2022-10-23T13:47:12.541Z,98477.38
2022-10-23T13:49:39.944Z,98478.00
2022-10-23T13:52:11.223Z,98470.94
2022-10-23T13:54:40.456Z,98479.88
2022-10-23T13:57:13.672Z,98470.28
2022-10-23T13:59:41.222Z,98458.84
2022-10-23T14:02:18.072Z,98470.13
2022-10-23T14:04:45.716Z,98463.03
2022-10-23T14:07:13.792Z,98463.47
2022-10-23T14:09:42.609Z,98468.06
2022-10-23T14:12:09.993Z,98468.50
2022-10-23T14:14:37.543Z,98469.13
2022-10-23T14:17:05.115Z,98466.16
2022-10-23T14:19:33.651Z,98463.28
2022-10-23T14:22:01.280Z,98464.06
2022-10-23T14:24:30.913Z,98459.53
2022-10-23T14:26:59.734Z,98463.69
2022-10-23T14:29:27.356Z,98466.63
2022-10-23T14:31:54.754Z,98465.94
2022-10-23T14:34:22.141Z,98462.81
2022-10-23T14:36:56.728Z,98468.03
2022-10-23T14:39:31.404Z,98456.63
2022-10-23T14:42:00.905Z,98454.16
2022-10-23T14:44:28.338Z,98457.03
2022-10-23T14:46:55.813Z,98454.16
2022-10-23T14:49:23.570Z,98452.72
2022-10-23T14:51:51.008Z,98450.38
2022-10-23T14:54:18.408Z,98451.63
2022-10-23T14:56:50.014Z,98450.38
2022-10-23T14:59:18.906Z,98447.25
2022-10-23T15:01:48.436Z,98447.88
2022-10-23T15:04:16.946Z,98449.31
2022-10-23T15:06:46.515Z,98451.22
2022-10-23T15:09:15.158Z,98450.81
2022-10-23T15:11:45.666Z,98448.03
2022-10-23T15:14:16.737Z,98454.78
2022-10-23T15:16:45.871Z,98441.69
2022-10-23T15:19:18.656Z,98434.63
2022-10-23T15:21:47.416Z,98437.13
2022-10-23T15:24:17.024Z,98434.22
2022-10-23T15:26:44.992Z,98435.69
2022-10-23T15:29:15.755Z,98425.91
2022-10-23T15:31:48.153Z,98429.44
2022-10-23T15:34:18.355Z,98427.41
2022-10-23T15:36:46.347Z,98430.47
2022-10-23T15:39:16.102Z,98428.44
2022-10-23T15:41:43.909Z,98426.75
2022-10-23T15:44:14.158Z,98428.19
2022-10-23T15:46:46.634Z,98423.41
2022-10-23T15:49:14.623Z,98421.34
2022-10-23T15:51:44.165Z,98411.19
2022-10-23T15:54:15.878Z,98417.81
2022-10-23T15:56:43.677Z,98419.28
2022-10-23T15:59:14.945Z,98423.22
2022-10-23T16:01:42.692Z,98415.09
2022-10-23T16:04:12.183Z,98410.97
2022-10-23T16:06:41.290Z,98410.75
2022-10-23T16:09:10.197Z,98416.34
2022-10-23T16:11:39.872Z,98412.44
2022-10-23T16:14:10.355Z,98406.34
2022-10-23T16:16:40.267Z,98411.16
2022-10-23T16:19:12.831Z,98396.03
2022-10-23T16:21:41.248Z,98401.81
2022-10-23T16:24:11.948Z,98403.28
2022-10-23T16:26:39.830Z,98398.09
2022-10-23T16:29:09.162Z,98403.28
2022-10-23T16:31:38.262Z,98400.78
2022-10-23T16:34:08.518Z,98391.88
2022-10-23T16:36:38.618Z,98397.03
2022-10-23T16:39:10.011Z,98391.25
2022-10-23T16:41:56.230Z,98384.19
2022-10-23T16:44:28.211Z,98389.59
2022-10-23T16:47:00.103Z,98388.94
2022-10-23T16:49:27.502Z,98384.81
2022-10-23T16:51:56.334Z,98385.19
2022-10-23T16:54:24.195Z,98387.47
2022-10-23T16:56:51.637Z,98382.31
2022-10-23T16:59:19.054Z,98375.25
2022-10-23T17:01:46.506Z,98376.91
2022-10-23T17:04:13.980Z,98377.75
2022-10-23T17:06:41.408Z,98373.59
2022-10-23T17:09:10.341Z,98376.28
2022-10-23T17:11:39.473Z,98376.28
2022-10-23T17:14:11.946Z,98369.84
2022-10-23T17:16:41.229Z,98366.13
2022-10-23T17:19:20.703Z,98367.56
2022-10-23T17:21:56.074Z,98367.34
2022-10-23T17:24:25.041Z,98358.63
2022-10-23T17:26:52.705Z,98355.13
2022-10-23T17:29:20.592Z,98356.34
2022-10-23T17:31:49.927Z,98348.44
2022-10-23T17:34:19.966Z,98352.63
2022-10-23T17:36:49.209Z,98353.66
2022-10-23T17:39:20.202Z,98344.94
2022-10-23T17:41:49.235Z,98342.44
2022-10-23T17:44:16.942Z,98339.75
2022-10-23T17:46:44.465Z,98337.47
2022-10-23T17:49:12.116Z,98337.47
2022-10-23T17:51:42.406Z,98337.47
2022-10-23T17:54:11.828Z,98331.88
2022-10-23T17:56:39.458Z,98333.09
2022-10-23T17:59:10.469Z,98330.81
2022-10-23T18:01:39.571Z,98322.53
2022-10-23T18:04:08.217Z,98326.47
2022-10-23T18:06:37.624Z,98319.19
2022-10-23T18:09:06.136Z,98316.06
2022-10-23T18:11:35.724Z,98315.25
2022-10-23T18:14:04.727Z,98316.72
2022-10-23T18:16:34.376Z,98312.56
2022-10-23T18:19:02.091Z,98302.38
2022-10-23T18:21:29.523Z,98305.31
2022-10-23T18:23:59.463Z,98302.19
2022-10-23T18:26:29.027Z,98304.03
2022-10-23T18:28:58.753Z,98298.44
2022-10-23T18:31:27.804Z,98299.28
2022-10-23T18:33:57.577Z,98303.03
2022-10-23T18:36:25.883Z,98307.16
2022-10-23T18:41:26.313Z,98304.66
2022-10-23T18:43:54.899Z,98299.91
2022-10-23T18:46:22.725Z,98299.47
2022-10-23T18:48:50.214Z,98287.03
2022-10-23T18:51:23.128Z,98294.50
2022-10-23T18:53:51.275Z,98288.28
2022-10-23T18:56:20.609Z,98284.13
2022-10-23T18:58:48.334Z,98274.75
2022-10-23T19:01:15.850Z,98279.13
2022-10-23T19:03:44.020Z,98277.25
2022-10-23T19:06:14.932Z,98277.69
2022-10-23T19:08:44.663Z,98278.97
2022-10-23T19:11:12.946Z,98280.38
2022-10-23T19:13:42.134Z,98269.78
2022-10-23T19:16:14.861Z,98268.53
2022-10-23T19:18:48.890Z,98271.84
2022-10-23T19:21:18.236Z,98267.69
2022-10-23T19:23:49.454Z,98272.28
2022-10-23T19:26:17.017Z,98262.94
2022-10-23T19:28:47.934Z,98269.38
2022-10-23T19:31:15.601Z,98262.94
2022-10-23T19:33:43.308Z,98256.47
2022-10-23T19:36:14.116Z,98256.06
2022-10-23T19:38:42.165Z,98255.66
2022-10-23T19:41:11.191Z,98244.25
2022-10-23T19:43:41.316Z,98250.66
2022-10-23T19:46:12.318Z,98252.13
2022-10-23T19:48:40.184Z,98258.34
2022-10-23T19:51:12.343Z,98250.25
2022-10-23T19:53:40.447Z,98249.84
2022-10-23T19:56:11.406Z,98239.25
2022-10-23T19:58:39.851Z,98241.75
2022-10-23T20:01:14.233Z,98240.50
2022-10-23T20:03:42.594Z,98247.56
2022-10-23T20:06:10.904Z,98229.69
2022-10-23T20:08:38.900Z,98242.16
2022-10-23T20:11:19.376Z,98231.78
2022-10-23T20:13:48.294Z,98228.44
2022-10-23T20:16:19.952Z,98221.16
2022-10-23T20:18:47.461Z,98223.88
2022-10-23T20:21:15.417Z,98216.38
2022-10-23T20:23:43.107Z,98221.78
2022-10-23T20:26:13.652Z,98214.13
2022-10-23T20:28:41.024Z,98217.44
2022-10-23T20:31:10.020Z,98210.59
2022-10-23T20:33:38.920Z,98218.69
2022-10-23T20:36:09.228Z,98212.06
2022-10-23T20:38:36.979Z,98209.97
2022-10-23T20:41:05.741Z,98214.34
2022-10-23T20:43:36.162Z,98211.22
2022-10-23T20:46:04.350Z,98217.25
2022-10-23T20:48:35.209Z,98209.13
2022-10-23T20:51:03.695Z,98212.47
2022-10-23T20:53:35.445Z,98223.25
2022-10-23T20:56:05.248Z,98219.53
2022-10-23T20:58:32.607Z,98212.25
2022-10-23T21:01:06.261Z,98212.66
2022-10-23T21:03:33.758Z,98212.44
2022-10-23T21:06:03.838Z,98211.41
2022-10-23T21:08:32.559Z,98215.38
2022-10-23T21:11:04.802Z,98211.22
2022-10-23T21:13:32.426Z,98206.22
2022-10-23T21:16:00.719Z,98207.91
2022-10-23T21:18:45.583Z,98203.31
2022-10-23T21:21:13.830Z,98200.19
2022-10-23T21:23:41.348Z,98198.75
2022-10-23T21:26:08.961Z,98197.03
2022-10-23T21:28:36.385Z,98183.38
2022-10-23T21:31:04.477Z,98190.03
2022-10-23T21:33:33.738Z,98184.19
2022-10-23T21:36:12.890Z,98179.03
2022-10-23T21:38:41.156Z,98171.09
2022-10-23T21:41:10.691Z,98165.34
2022-10-23T21:43:38.137Z,98165.06
2022-10-23T21:46:06.319Z,98163.44
2022-10-23T21:48:35.141Z,98158.84
2022-10-23T21:51:03.087Z,98156.38
2022-10-23T21:53:30.906Z,98147.88
2022-10-23T21:56:05.302Z,98138.50
2022-10-23T21:58:32.773Z,98135.38
2022-10-23T22:01:00.870Z,98137.69
2022-10-23T22:03:28.228Z,98132.28
2022-10-23T22:05:58.302Z,98122.75
2022-10-23T22:08:25.715Z,98121.50
2022-10-23T22:10:53.328Z,98125.22
2022-10-23T22:13:20.861Z,98112.78
2022-10-23T22:15:48.209Z,98123.56
2022-10-23T22:18:16.054Z,98120.69
2022-10-23T22:20:46.058Z,98111.53
2022-10-23T22:23:16.214Z,98111.72
2022-10-23T22:25:46.127Z,98100.28
2022-10-23T22:28:14.668Z,98103.00
2022-10-23T22:30:43.715Z,98096.59
2022-10-23T22:33:13.951Z,98097.16
2022-10-23T22:35:44.084Z,98096.75
2022-10-23T22:38:12.740Z,98101.78
2022-10-23T22:40:46.558Z,98110.69
2022-10-23T22:43:14.162Z,98104.22
2022-10-23T22:45:42.255Z,98096.38
2022-10-23T22:48:12.708Z,98090.53
2022-10-23T22:50:42.550Z,98090.34
2022-10-23T22:53:11.102Z,98084.50
2022-10-23T22:55:43.043Z,98081.00
2022-10-23T22:58:11.145Z,98087.03
2022-10-23T23:00:42.801Z,98090.28
2022-10-23T23:03:11.170Z,98081.00
2022-10-23T23:08:15.209Z,98079.56
2022-10-23T23:10:52.386Z,98082.81
2022-10-23T23:13:19.818Z,98074.50
2022-10-23T23:15:47.281Z,98072.03
2022-10-23T23:18:14.725Z,98068.47
2022-10-23T23:20:42.091Z,98073.47
2022-10-23T23:23:09.662Z,98069.72
2022-10-23T23:25:41.517Z,98067.09
2022-10-23T23:28:11.987Z,98062.50
2022-10-23T23:30:39.894Z,98057.28
2022-10-23T23:33:08.374Z,98062.09
2022-10-23T23:35:39.868Z,98062.09
2022-10-23T23:38:07.544Z,98056.25
2022-10-23T23:40:37.754Z,98056.25
2022-10-23T23:43:05.465Z,98049.41
2022-10-23T23:45:42.398Z,98063.53
2022-10-23T23:48:09.790Z,98048.75
2022-10-23T23:50:37.218Z,98061.66
2022-10-23T23:53:06.175Z,98051.66
2022-10-23T23:55:35.258Z,98054.81
2022-10-23T23:58:04.510Z,98055.84
